sensor_id;sensor_type;location;lat;lon;timestamp;P1;P2;P0
63707;PMS5003;67643;-34.198;22.084;2023-04-03T00:01:14;12;8;
63707;PMS5003;67643;-34.198;22.084;2023-04-03T00:03:43;10;10;
63707;PMS5003;67643;-34.198;22.084;2023-04-03T00:06:12;10;8;
63707;PMS5003;67643;-34.198;22.084;2023-04-03T00:08:41;7;6;
63707;PMS5003;67643;-34.198;22.084;2023-04-03T00:11:09;9;9;
63707;PMS5003;67643;-34.198;22.084;2023-04-03T00:13:38;11;9;
63707;PMS5003;67643;-34.198;22.084;2023-04-03T00:16:07;13;10;
63707;PMS5003;67643;-34.198;22.084;2023-04-03T00:18:37;10;10;
63707;PMS5003;67643;-34.198;22.084;2023-04-03T00:21:07;9;8;
63707;PMS5003;67643;-34.198;22.084;2023-04-03T00:23:37;10;10;
63707;PMS5003;67643;-34.198;22.084;2023-04-03T00:26:05;11;10;
63707;PMS5003;67643;-34.198;22.084;2023-04-03T00:28:33;9;9;
63707;PMS5003;67643;-34.198;22.084;2023-04-03T00:31:02;9;9;
63707;PMS5003;67643;-34.198;22.084;2023-04-03T00:33:30;8;8;
63707;PMS5003;67643;-34.198;22.084;2023-04-03T00:35:59;9;8;
63707;PMS5003;67643;-34.198;22.084;2023-04-03T00:38:32;8;7;
63707;PMS5003;67643;-34.198;22.084;2023-04-03T00:41:00;9;9;
63707;PMS5003;67643;-34.198;22.084;2023-04-03T00:43:29;8;7;
63707;PMS5003;67643;-34.198;22.084;2023-04-03T00:45:58;9;9;
63707;PMS5003;67643;-34.198;22.084;2023-04-03T00:48:29;11;9;
63707;PMS5003;67643;-34.198;22.084;2023-04-03T00:51:00;9;9;
63707;PMS5003;67643;-34.198;22.084;2023-04-03T00:53:30;8;7;
63707;PMS5003;67643;-34.198;22.084;2023-04-03T00:56:02;12;9;
63707;PMS5003;67643;-34.198;22.084;2023-04-03T00:58:37;10;8;
63707;PMS5003;67643;-34.198;22.084;2023-04-03T01:01:08;7;7;
63707;PMS5003;67643;-34.198;22.084;2023-04-03T01:03:39;11;9;
63707;PMS5003;67643;-34.198;22.084;2023-04-03T01:06:08;11;9;
63707;PMS5003;67643;-34.198;22.084;2023-04-03T01:08:36;9;6;
63707;PMS5003;67643;-34.198;22.084;2023-04-03T01:11:05;11;8;
63707;PMS5003;67643;-34.198;22.084;2023-04-03T01:13:33;10;7;
63707;PMS5003;67643;-34.198;22.084;2023-04-03T01:16:03;10;9;
63707;PMS5003;67643;-34.198;22.084;2023-04-03T01:18:32;8;8;
63707;PMS5003;67643;-34.198;22.084;2023-04-03T01:22:11;7;7;
63707;PMS5003;67643;-34.198;22.084;2023-04-03T01:24:45;10;6;
63707;PMS5003;67643;-34.198;22.084;2023-04-03T01:27:13;11;7;
63707;PMS5003;67643;-34.198;22.084;2023-04-03T01:29:42;10;8;
63707;PMS5003;67643;-34.198;22.084;2023-04-03T01:32:11;7;7;
63707;PMS5003;67643;-34.198;22.084;2023-04-03T01:34:40;8;5;
63707;PMS5003;67643;-34.198;22.084;2023-04-03T01:37:08;10;7;
63707;PMS5003;67643;-34.198;22.084;2023-04-03T01:39:37;4;4;
63707;PMS5003;67643;-34.198;22.084;2023-04-03T01:42:05;8;8;
63707;PMS5003;67643;-34.198;22.084;2023-04-03T01:44:34;8;8;
63707;PMS5003;67643;-34.198;22.084;2023-04-03T01:47:02;9;7;
63707;PMS5003;67643;-34.198;22.084;2023-04-03T01:49:33;11;8;
63707;PMS5003;67643;-34.198;22.084;2023-04-03T01:52:01;8;7;
63707;PMS5003;67643;-34.198;22.084;2023-04-03T01:54:30;10;8;
63707;PMS5003;67643;-34.198;22.084;2023-04-03T01:56:58;11;8;
63707;PMS5003;67643;-34.198;22.084;2023-04-03T01:59:26;11;9;
63707;PMS5003;67643;-34.198;22.084;2023-04-03T03:03:00;11;9;
63707;PMS5003;67643;-34.198;22.084;2023-04-03T03:05:28;19;13;
63707;PMS5003;67643;-34.198;22.084;2023-04-03T03:07:57;16;12;
63707;PMS5003;67643;-34.198;22.084;2023-04-03T03:10:25;14;11;
63707;PMS5003;67643;-34.198;22.084;2023-04-03T03:12:53;20;14;
63707;PMS5003;67643;-34.198;22.084;2023-04-03T03:15:22;25;17;
63707;PMS5003;67643;-34.198;22.084;2023-04-03T03:17:50;17;11;
63707;PMS5003;67643;-34.198;22.084;2023-04-03T03:20:19;17;12;
63707;PMS5003;67643;-34.198;22.084;2023-04-03T03:22:48;18;13;
63707;PMS5003;67643;-34.198;22.084;2023-04-03T03:25:16;13;11;
63707;PMS5003;67643;-34.198;22.084;2023-04-03T03:27:44;15;13;
63707;PMS5003;67643;-34.198;22.084;2023-04-03T03:30:12;14;12;
63707;PMS5003;67643;-34.198;22.084;2023-04-03T03:32:41;15;12;
63707;PMS5003;67643;-34.198;22.084;2023-04-03T03:35:10;16;11;
63707;PMS5003;67643;-34.198;22.084;2023-04-03T03:37:38;13;10;
63707;PMS5003;67643;-34.198;22.084;2023-04-03T03:40:07;18;13;
63707;PMS5003;67643;-34.198;22.084;2023-04-03T03:42:36;13;12;
63707;PMS5003;67643;-34.198;22.084;2023-04-03T03:45:05;14;11;
63707;PMS5003;67643;-34.198;22.084;2023-04-03T03:47:34;19;11;
63707;PMS5003;67643;-34.198;22.084;2023-04-03T03:50:03;14;12;
63707;PMS5003;67643;-34.198;22.084;2023-04-03T03:52:31;15;11;
63707;PMS5003;67643;-34.198;22.084;2023-04-03T03:55:00;22;14;
63707;PMS5003;67643;-34.198;22.084;2023-04-03T03:57:28;15;12;
63707;PMS5003;67643;-34.198;22.084;2023-04-03T03:59:57;23;13;
63707;PMS5003;67643;-34.198;22.084;2023-04-03T04:02:26;16;12;
63707;PMS5003;67643;-34.198;22.084;2023-04-03T04:04:55;18;13;
63707;PMS5003;67643;-34.198;22.084;2023-04-03T04:07:24;16;13;
63707;PMS5003;67643;-34.198;22.084;2023-04-03T04:09:52;16;12;
63707;PMS5003;67643;-34.198;22.084;2023-04-03T04:12:21;21;13;
63707;PMS5003;67643;-34.198;22.084;2023-04-03T04:14:50;20;14;
63707;PMS5003;67643;-34.198;22.084;2023-04-03T04:17:18;13;11;
63707;PMS5003;67643;-34.198;22.084;2023-04-03T04:19:47;24;17;
63707;PMS5003;67643;-34.198;22.084;2023-04-03T04:22:15;17;13;
63707;PMS5003;67643;-34.198;22.084;2023-04-03T04:24:44;16;13;
63707;PMS5003;67643;-34.198;22.084;2023-04-03T04:27:12;19;15;
63707;PMS5003;67643;-34.198;22.084;2023-04-03T04:29:41;15;14;
63707;PMS5003;67643;-34.198;22.084;2023-04-03T04:32:09;20;12;
63707;PMS5003;67643;-34.198;22.084;2023-04-03T04:34:37;12;11;
63707;PMS5003;67643;-34.198;22.084;2023-04-03T04:37:06;9;9;
63707;PMS5003;67643;-34.198;22.084;2023-04-03T04:39:34;14;11;
63707;PMS5003;67643;-34.198;22.084;2023-04-03T04:42:02;17;14;
63707;PMS5003;67643;-34.198;22.084;2023-04-03T04:44:31;10;9;
63707;PMS5003;67643;-34.198;22.084;2023-04-03T04:46:59;11;10;
63707;PMS5003;67643;-34.198;22.084;2023-04-03T04:49:27;13;12;
63707;PMS5003;67643;-34.198;22.084;2023-04-03T04:51:56;12;9;
63707;PMS5003;67643;-34.198;22.084;2023-04-03T04:54:24;10;8;
63707;PMS5003;67643;-34.198;22.084;2023-04-03T04:56:53;13;8;
63707;PMS5003;67643;-34.198;22.084;2023-04-03T04:59:21;8;7;
63707;PMS5003;67643;-34.198;22.084;2023-04-03T05:01:49;14;11;
63707;PMS5003;67643;-34.198;22.084;2023-04-03T05:04:19;7;6;
63707;PMS5003;67643;-34.198;22.084;2023-04-03T05:06:48;12;8;
63707;PMS5003;67643;-34.198;22.084;2023-04-03T05:09:16;9;6;
63707;PMS5003;67643;-34.198;22.084;2023-04-03T05:11:45;8;7;
63707;PMS5003;67643;-34.198;22.084;2023-04-03T05:14:13;13;7;
63707;PMS5003;67643;-34.198;22.084;2023-04-03T05:16:41;7;7;
63707;PMS5003;67643;-34.198;22.084;2023-04-03T05:19:10;8;6;
63707;PMS5003;67643;-34.198;22.084;2023-04-03T05:21:39;10;8;
63707;PMS5003;67643;-34.198;22.084;2023-04-03T05:24:08;9;7;
63707;PMS5003;67643;-34.198;22.084;2023-04-03T05:26:36;8;5;
63707;PMS5003;67643;-34.198;22.084;2023-04-03T05:29:05;8;4;
63707;PMS5003;67643;-34.198;22.084;2023-04-03T05:31:34;7;7;
63707;PMS5003;67643;-34.198;22.084;2023-04-03T05:34:03;8;5;
63707;PMS5003;67643;-34.198;22.084;2023-04-03T05:36:31;6;5;
63707;PMS5003;67643;-34.198;22.084;2023-04-03T05:39:00;10;5;
63707;PMS5003;67643;-34.198;22.084;2023-04-03T05:41:28;5;5;
63707;PMS5003;67643;-34.198;22.084;2023-04-03T05:43:57;4;4;
63707;PMS5003;67643;-34.198;22.084;2023-04-03T05:46:25;4;3;
63707;PMS5003;67643;-34.198;22.084;2023-04-03T05:48:54;2;2;
63707;PMS5003;67643;-34.198;22.084;2023-04-03T05:51:23;5;5;
63707;PMS5003;67643;-34.198;22.084;2023-04-03T05:53:56;4;4;
63707;PMS5003;67643;-34.198;22.084;2023-04-03T05:56:30;4;4;
63707;PMS5003;67643;-34.198;22.084;2023-04-03T05:58:58;8;4;
63707;PMS5003;67643;-34.198;22.084;2023-04-03T06:01:26;8;5;
63707;PMS5003;67643;-34.198;22.084;2023-04-03T06:03:55;4;2;
63707;PMS5003;67643;-34.198;22.084;2023-04-03T06:06:23;7;5;
63707;PMS5003;67643;-34.198;22.084;2023-04-03T06:08:52;9;8;
63707;PMS5003;67643;-34.198;22.084;2023-04-03T06:11:21;10;7;
63707;PMS5003;67643;-34.198;22.084;2023-04-03T06:13:50;11;9;
63707;PMS5003;67643;-34.198;22.084;2023-04-03T06:16:18;11;7;
63707;PMS5003;67643;-34.198;22.084;2023-04-03T06:18:47;12;10;
63707;PMS5003;67643;-34.198;22.084;2023-04-03T06:21:15;14;10;
63707;PMS5003;67643;-34.198;22.084;2023-04-03T06:23:43;10;9;
63707;PMS5003;67643;-34.198;22.084;2023-04-03T06:26:11;14;9;
63707;PMS5003;67643;-34.198;22.084;2023-04-03T06:28:40;12;7;
63707;PMS5003;67643;-34.198;22.084;2023-04-03T06:31:09;16;10;
63707;PMS5003;67643;-34.198;22.084;2023-04-03T06:33:37;11;6;
63707;PMS5003;67643;-34.198;22.084;2023-04-03T06:36:05;6;5;
63707;PMS5003;67643;-34.198;22.084;2023-04-03T06:38:34;11;7;
63707;PMS5003;67643;-34.198;22.084;2023-04-03T06:41:03;15;7;
63707;PMS5003;67643;-34.198;22.084;2023-04-03T06:43:32;6;6;
63707;PMS5003;67643;-34.198;22.084;2023-04-03T06:46:00;7;4;
63707;PMS5003;67643;-34.198;22.084;2023-04-03T06:48:29;5;4;
63707;PMS5003;67643;-34.198;22.084;2023-04-03T06:50:58;5;5;
63707;PMS5003;67643;-34.198;22.084;2023-04-03T06:53:26;8;5;
63707;PMS5003;67643;-34.198;22.084;2023-04-03T06:55:55;4;4;
63707;PMS5003;67643;-34.198;22.084;2023-04-03T06:58:23;10;5;
63707;PMS5003;67643;-34.198;22.084;2023-04-03T07:00:52;14;7;
63707;PMS5003;67643;-34.198;22.084;2023-04-03T07:03:20;9;6;
63707;PMS5003;67643;-34.198;22.084;2023-04-03T07:05:49;6;5;
63707;PMS5003;67643;-34.198;22.084;2023-04-03T07:08:18;14;8;
63707;PMS5003;67643;-34.198;22.084;2023-04-03T07:10:47;8;7;
63707;PMS5003;67643;-34.198;22.084;2023-04-03T07:13:16;10;8;
63707;PMS5003;67643;-34.198;22.084;2023-04-03T07:15:44;7;5;
63707;PMS5003;67643;-34.198;22.084;2023-04-03T07:18:13;6;5;
63707;PMS5003;67643;-34.198;22.084;2023-04-03T07:20:42;7;5;
63707;PMS5003;67643;-34.198;22.084;2023-04-03T07:23:10;10;7;
63707;PMS5003;67643;-34.198;22.084;2023-04-03T07:25:42;9;7;
63707;PMS5003;67643;-34.198;22.084;2023-04-03T07:28:10;9;8;
63707;PMS5003;67643;-34.198;22.084;2023-04-03T07:30:43;11;8;
63707;PMS5003;67643;-34.198;22.084;2023-04-03T07:33:12;12;6;
63707;PMS5003;67643;-34.198;22.084;2023-04-03T07:35:42;11;8;
63707;PMS5003;67643;-34.198;22.084;2023-04-03T07:38:12;7;7;
63707;PMS5003;67643;-34.198;22.084;2023-04-03T07:40:40;12;8;
63707;PMS5003;67643;-34.198;22.084;2023-04-03T07:43:14;10;7;
63707;PMS5003;67643;-34.198;22.084;2023-04-03T07:45:43;9;7;
63707;PMS5003;67643;-34.198;22.084;2023-04-03T07:48:13;17;11;
63707;PMS5003;67643;-34.198;22.084;2023-04-03T07:50:42;13;8;
63707;PMS5003;67643;-34.198;22.084;2023-04-03T07:53:10;9;5;
63707;PMS5003;67643;-34.198;22.084;2023-04-03T07:55:40;10;10;
63707;PMS5003;67643;-34.198;22.084;2023-04-03T07:58:09;7;5;
63707;PMS5003;67643;-34.198;22.084;2023-04-03T08:00:38;16;10;
63707;PMS5003;67643;-34.198;22.084;2023-04-03T08:03:07;11;7;
63707;PMS5003;67643;-34.198;22.084;2023-04-03T08:05:38;10;7;
63707;PMS5003;67643;-34.198;22.084;2023-04-03T08:08:07;12;10;
63707;PMS5003;67643;-34.198;22.084;2023-04-03T08:10:37;9;7;
63707;PMS5003;67643;-34.198;22.084;2023-04-03T08:13:07;9;7;
63707;PMS5003;67643;-34.198;22.084;2023-04-03T08:15:36;8;6;
63707;PMS5003;67643;-34.198;22.084;2023-04-03T08:18:04;11;9;
63707;PMS5003;67643;-34.198;22.084;2023-04-03T08:20:33;8;5;
63707;PMS5003;67643;-34.198;22.084;2023-04-03T08:23:01;5;5;
63707;PMS5003;67643;-34.198;22.084;2023-04-03T08:25:29;13;7;
63707;PMS5003;67643;-34.198;22.084;2023-04-03T08:27:58;17;10;
63707;PMS5003;67643;-34.198;22.084;2023-04-03T08:30:27;11;6;
63707;PMS5003;67643;-34.198;22.084;2023-04-03T08:32:55;10;8;
63707;PMS5003;67643;-34.198;22.084;2023-04-03T08:35:23;6;6;
63707;PMS5003;67643;-34.198;22.084;2023-04-03T08:37:52;5;3;
63707;PMS5003;67643;-34.198;22.084;2023-04-03T08:40:20;4;4;
63707;PMS5003;67643;-34.198;22.084;2023-04-03T08:42:52;16;8;
63707;PMS5003;67643;-34.198;22.084;2023-04-03T08:45:34;9;7;
63707;PMS5003;67643;-34.198;22.084;2023-04-03T08:48:12;12;10;
63707;PMS5003;67643;-34.198;22.084;2023-04-03T08:50:47;12;9;
63707;PMS5003;67643;-34.198;22.084;2023-04-03T08:53:19;18;9;
63707;PMS5003;67643;-34.198;22.084;2023-04-03T08:55:50;16;11;
63707;PMS5003;67643;-34.198;22.084;2023-04-03T08:58:20;12;9;
63707;PMS5003;67643;-34.198;22.084;2023-04-03T09:00:50;9;7;
63707;PMS5003;67643;-34.198;22.084;2023-04-03T09:03:22;18;10;
63707;PMS5003;67643;-34.198;22.084;2023-04-03T09:05:52;12;8;
63707;PMS5003;67643;-34.198;22.084;2023-04-03T09:08:25;12;9;
63707;PMS5003;67643;-34.198;22.084;2023-04-03T09:10:59;9;8;
63707;PMS5003;67643;-34.198;22.084;2023-04-03T09:13:40;14;6;
63707;PMS5003;67643;-34.198;22.084;2023-04-03T09:16:20;8;6;
63707;PMS5003;67643;-34.198;22.084;2023-04-03T09:18:57;10;6;
63707;PMS5003;67643;-34.198;22.084;2023-04-03T09:21:36;11;6;
63707;PMS5003;67643;-34.198;22.084;2023-04-03T09:24:06;11;5;
63707;PMS5003;67643;-34.198;22.084;2023-04-03T09:26:38;17;6;
63707;PMS5003;67643;-34.198;22.084;2023-04-03T09:29:14;9;8;
63707;PMS5003;67643;-34.198;22.084;2023-04-03T09:31:47;11;9;
63707;PMS5003;67643;-34.198;22.084;2023-04-03T09:34:20;8;5;
63707;PMS5003;67643;-34.198;22.084;2023-04-03T09:36:53;13;9;
63707;PMS5003;67643;-34.198;22.084;2023-04-03T09:39:23;7;4;
63707;PMS5003;67643;-34.198;22.084;2023-04-03T09:41:57;14;7;
63707;PMS5003;67643;-34.198;22.084;2023-04-03T09:44:28;11;7;
63707;PMS5003;67643;-34.198;22.084;2023-04-03T09:46:58;12;7;
63707;PMS5003;67643;-34.198;22.084;2023-04-03T09:49:27;9;5;
63707;PMS5003;67643;-34.198;22.084;2023-04-03T09:51:56;8;6;
63707;PMS5003;67643;-34.198;22.084;2023-04-03T09:54:25;8;7;
63707;PMS5003;67643;-34.198;22.084;2023-04-03T09:57:01;8;8;
63707;PMS5003;67643;-34.198;22.084;2023-04-03T09:59:34;8;6;
63707;PMS5003;67643;-34.198;22.084;2023-04-03T10:02:04;12;8;
63707;PMS5003;67643;-34.198;22.084;2023-04-03T12:06:49;14;11;
63707;PMS5003;67643;-34.198;22.084;2023-04-03T12:09:29;11;9;
63707;PMS5003;67643;-34.198;22.084;2023-04-03T12:12:22;17;12;
63707;PMS5003;67643;-34.198;22.084;2023-04-03T12:15:11;8;7;
63707;PMS5003;67643;-34.198;22.084;2023-04-03T12:18:59;7;7;
63707;PMS5003;67643;-34.198;22.084;2023-04-03T12:22:34;12;9;
63707;PMS5003;67643;-34.198;22.084;2023-04-03T12:25:03;10;8;
63707;PMS5003;67643;-34.198;22.084;2023-04-03T12:28:14;8;5;
63707;PMS5003;67643;-34.198;22.084;2023-04-03T12:30:43;6;5;
63707;PMS5003;67643;-34.198;22.084;2023-04-03T12:33:17;12;6;
63707;PMS5003;67643;-34.198;22.084;2023-04-03T12:35:58;9;6;
63707;PMS5003;67643;-34.198;22.084;2023-04-03T12:39:00;9;5;
63707;PMS5003;67643;-34.198;22.084;2023-04-03T12:41:36;4;4;
63707;PMS5003;67643;-34.198;22.084;2023-04-03T12:44:22;4;3;
63707;PMS5003;67643;-34.198;22.084;2023-04-03T12:47:00;6;6;
63707;PMS5003;67643;-34.198;22.084;2023-04-03T12:49:33;4;4;
63707;PMS5003;67643;-34.198;22.084;2023-04-03T12:52:06;4;2;
63707;PMS5003;67643;-34.198;22.084;2023-04-03T12:54:45;5;3;
63707;PMS5003;67643;-34.198;22.084;2023-04-03T12:57:17;4;2;
63707;PMS5003;67643;-34.198;22.084;2023-04-03T12:59:46;4;4;
63707;PMS5003;67643;-34.198;22.084;2023-04-03T13:02:20;6;4;
63707;PMS5003;67643;-34.198;22.084;2023-04-03T13:04:51;5;3;
63707;PMS5003;67643;-34.198;22.084;2023-04-03T13:07:22;4;3;
63707;PMS5003;67643;-34.198;22.084;2023-04-03T13:09:58;4;2;
63707;PMS5003;67643;-34.198;22.084;2023-04-03T13:12:28;4;4;
63707;PMS5003;67643;-34.198;22.084;2023-04-03T13:14:58;9;4;
63707;PMS5003;67643;-34.198;22.084;2023-04-03T13:17:28;3;1;
63707;PMS5003;67643;-34.198;22.084;2023-04-03T13:20:19;3;3;
63707;PMS5003;67643;-34.198;22.084;2023-04-03T13:22:57;4;1;
63707;PMS5003;67643;-34.198;22.084;2023-04-03T13:25:29;2;2;
63707;PMS5003;67643;-34.198;22.084;2023-04-03T13:28:01;6;3;
63707;PMS5003;67643;-34.198;22.084;2023-04-03T13:30:33;4;2;
63707;PMS5003;67643;-34.198;22.084;2023-04-03T13:33:04;5;3;
63707;PMS5003;67643;-34.198;22.084;2023-04-03T13:35:45;5;4;
63707;PMS5003;67643;-34.198;22.084;2023-04-03T13:38:22;5;2;
63707;PMS5003;67643;-34.198;22.084;2023-04-03T13:40:53;4;2;
63707;PMS5003;67643;-34.198;22.084;2023-04-03T13:43:25;3;2;
63707;PMS5003;67643;-34.198;22.084;2023-04-03T13:46:00;6;3;
63707;PMS5003;67643;-34.198;22.084;2023-04-03T13:48:37;3;3;
63707;PMS5003;67643;-34.198;22.084;2023-04-03T13:51:17;7;4;
63707;PMS5003;67643;-34.198;22.084;2023-04-03T13:53:49;7;3;
63707;PMS5003;67643;-34.198;22.084;2023-04-03T13:56:22;0;0;
63707;PMS5003;67643;-34.198;22.084;2023-04-03T13:58:56;7;4;
63707;PMS5003;67643;-34.198;22.084;2023-04-03T14:01:33;4;3;
63707;PMS5003;67643;-34.198;22.084;2023-04-03T14:04:11;9;7;
63707;PMS5003;67643;-34.198;22.084;2023-04-03T14:06:44;3;3;
63707;PMS5003;67643;-34.198;22.084;2023-04-03T14:09:14;4;2;
63707;PMS5003;67643;-34.198;22.084;2023-04-03T14:11:45;2;2;
63707;PMS5003;67643;-34.198;22.084;2023-04-03T14:14:15;3;3;
63707;PMS5003;67643;-34.198;22.084;2023-04-03T14:16:47;5;3;
63707;PMS5003;67643;-34.198;22.084;2023-04-03T14:19:20;6;3;
63707;PMS5003;67643;-34.198;22.084;2023-04-03T14:21:51;4;4;
63707;PMS5003;67643;-34.198;22.084;2023-04-03T14:24:21;7;4;
63707;PMS5003;67643;-34.198;22.084;2023-04-03T14:26:50;3;2;
63707;PMS5003;67643;-34.198;22.084;2023-04-03T14:29:20;5;3;
63707;PMS5003;67643;-34.198;22.084;2023-04-03T14:31:49;7;2;
63707;PMS5003;67643;-34.198;22.084;2023-04-03T14:34:18;3;3;
63707;PMS5003;67643;-34.198;22.084;2023-04-03T14:36:47;5;4;
63707;PMS5003;67643;-34.198;22.084;2023-04-03T14:39:16;8;6;
63707;PMS5003;67643;-34.198;22.084;2023-04-03T14:41:45;5;5;
63707;PMS5003;67643;-34.198;22.084;2023-04-03T14:44:15;6;3;
63707;PMS5003;67643;-34.198;22.084;2023-04-03T14:46:43;7;3;
63707;PMS5003;67643;-34.198;22.084;2023-04-03T14:49:13;4;3;
63707;PMS5003;67643;-34.198;22.084;2023-04-03T14:51:44;3;3;
63707;PMS5003;67643;-34.198;22.084;2023-04-03T14:54:13;7;4;
63707;PMS5003;67643;-34.198;22.084;2023-04-03T14:56:44;3;3;
63707;PMS5003;67643;-34.198;22.084;2023-04-03T14:59:13;8;3;
63707;PMS5003;67643;-34.198;22.084;2023-04-03T15:01:42;6;5;
63707;PMS5003;67643;-34.198;22.084;2023-04-03T15:04:11;4;2;
63707;PMS5003;67643;-34.198;22.084;2023-04-03T15:06:41;3;3;
63707;PMS5003;67643;-34.198;22.084;2023-04-03T15:09:13;10;4;
63707;PMS5003;67643;-34.198;22.084;2023-04-03T15:11:46;7;4;
63707;PMS5003;67643;-34.198;22.084;2023-04-03T15:14:15;8;8;
63707;PMS5003;67643;-34.198;22.084;2023-04-03T15:16:44;9;9;
63707;PMS5003;67643;-34.198;22.084;2023-04-03T15:19:13;10;10;
63707;PMS5003;67643;-34.198;22.084;2023-04-03T15:21:41;8;6;
63707;PMS5003;67643;-34.198;22.084;2023-04-03T15:24:10;12;9;
63707;PMS5003;67643;-34.198;22.084;2023-04-03T15:26:38;14;10;
63707;PMS5003;67643;-34.198;22.084;2023-04-03T15:29:06;9;7;
63707;PMS5003;67643;-34.198;22.084;2023-04-03T15:31:35;10;8;
63707;PMS5003;67643;-34.198;22.084;2023-04-03T15:34:03;11;9;
63707;PMS5003;67643;-34.198;22.084;2023-04-03T15:36:32;20;16;
63707;PMS5003;67643;-34.198;22.084;2023-04-03T15:39:00;14;7;
63707;PMS5003;67643;-34.198;22.084;2023-04-03T15:41:28;8;8;
63707;PMS5003;67643;-34.198;22.084;2023-04-03T15:43:57;12;12;
63707;PMS5003;67643;-34.198;22.084;2023-04-03T15:46:25;14;9;
63707;PMS5003;67643;-34.198;22.084;2023-04-03T15:48:53;10;10;
63707;PMS5003;67643;-34.198;22.084;2023-04-03T15:51:22;15;12;
63707;PMS5003;67643;-34.198;22.084;2023-04-03T15:53:50;15;9;
63707;PMS5003;67643;-34.198;22.084;2023-04-03T15:56:19;15;12;
63707;PMS5003;67643;-34.198;22.084;2023-04-03T15:58:47;12;9;
63707;PMS5003;67643;-34.198;22.084;2023-04-03T16:01:16;17;12;
63707;PMS5003;67643;-34.198;22.084;2023-04-03T16:03:44;10;9;
63707;PMS5003;67643;-34.198;22.084;2023-04-03T16:06:13;7;6;
63707;PMS5003;67643;-34.198;22.084;2023-04-03T16:08:42;12;8;
63707;PMS5003;67643;-34.198;22.084;2023-04-03T16:11:13;11;10;
63707;PMS5003;67643;-34.198;22.084;2023-04-03T16:13:42;8;8;
63707;PMS5003;67643;-34.198;22.084;2023-04-03T16:16:10;8;8;
63707;PMS5003;67643;-34.198;22.084;2023-04-03T16:18:39;14;8;
63707;PMS5003;67643;-34.198;22.084;2023-04-03T16:21:07;9;5;
63707;PMS5003;67643;-34.198;22.084;2023-04-03T16:23:36;8;8;
63707;PMS5003;67643;-34.198;22.084;2023-04-03T16:26:05;14;12;
63707;PMS5003;67643;-34.198;22.084;2023-04-03T16:28:33;20;7;
63707;PMS5003;67643;-34.198;22.084;2023-04-03T16:31:01;10;8;
63707;PMS5003;67643;-34.198;22.084;2023-04-03T16:33:31;13;11;
63707;PMS5003;67643;-34.198;22.084;2023-04-03T16:36:00;6;6;
63707;PMS5003;67643;-34.198;22.084;2023-04-03T16:38:28;10;7;
63707;PMS5003;67643;-34.198;22.084;2023-04-03T16:40:57;11;8;
63707;PMS5003;67643;-34.198;22.084;2023-04-03T16:43:25;9;6;
63707;PMS5003;67643;-34.198;22.084;2023-04-03T16:45:53;7;6;
63707;PMS5003;67643;-34.198;22.084;2023-04-03T16:48:22;7;3;
63707;PMS5003;67643;-34.198;22.084;2023-04-03T16:50:50;15;12;
63707;PMS5003;67643;-34.198;22.084;2023-04-03T16:53:18;11;7;
63707;PMS5003;67643;-34.198;22.084;2023-04-03T16:55:46;5;4;
63707;PMS5003;67643;-34.198;22.084;2023-04-03T16:58:15;9;5;
63707;PMS5003;67643;-34.198;22.084;2023-04-03T17:00:43;9;8;
63707;PMS5003;67643;-34.198;22.084;2023-04-03T17:03:12;10;8;
63707;PMS5003;67643;-34.198;22.084;2023-04-03T17:05:40;8;8;
63707;PMS5003;67643;-34.198;22.084;2023-04-03T17:08:09;13;6;
63707;PMS5003;67643;-34.198;22.084;2023-04-03T17:10:38;11;9;
63707;PMS5003;67643;-34.198;22.084;2023-04-03T17:13:07;14;10;
63707;PMS5003;67643;-34.198;22.084;2023-04-03T17:15:36;13;11;
63707;PMS5003;67643;-34.198;22.084;2023-04-03T17:18:04;13;8;
63707;PMS5003;67643;-34.198;22.084;2023-04-03T17:20:33;9;9;
63707;PMS5003;67643;-34.198;22.084;2023-04-03T17:23:02;18;13;
63707;PMS5003;67643;-34.198;22.084;2023-04-03T17:25:32;16;9;
63707;PMS5003;67643;-34.198;22.084;2023-04-03T17:28:00;11;7;
63707;PMS5003;67643;-34.198;22.084;2023-04-03T17:30:28;7;7;
63707;PMS5003;67643;-34.198;22.084;2023-04-03T17:32:57;11;10;
63707;PMS5003;67643;-34.198;22.084;2023-04-03T17:35:25;10;8;
63707;PMS5003;67643;-34.198;22.084;2023-04-03T17:37:53;11;5;
63707;PMS5003;67643;-34.198;22.084;2023-04-03T17:40:22;13;9;
63707;PMS5003;67643;-34.198;22.084;2023-04-03T17:42:50;15;8;
63707;PMS5003;67643;-34.198;22.084;2023-04-03T17:45:19;10;8;
63707;PMS5003;67643;-34.198;22.084;2023-04-03T17:47:47;12;8;
63707;PMS5003;67643;-34.198;22.084;2023-04-03T17:50:18;14;10;
63707;PMS5003;67643;-34.198;22.084;2023-04-03T17:52:47;15;8;
63707;PMS5003;67643;-34.198;22.084;2023-04-03T17:55:15;8;7;
63707;PMS5003;67643;-34.198;22.084;2023-04-03T17:57:44;13;10;
63707;PMS5003;67643;-34.198;22.084;2023-04-03T18:00:13;17;12;
63707;PMS5003;67643;-34.198;22.084;2023-04-03T20:09:06;4;4;
63707;PMS5003;67643;-34.198;22.084;2023-04-03T20:11:34;3;3;
63707;PMS5003;67643;-34.198;22.084;2023-04-03T20:14:04;6;3;
63707;PMS5003;67643;-34.198;22.084;2023-04-03T20:16:32;4;4;
63707;PMS5003;67643;-34.198;22.084;2023-04-03T20:19:01;4;3;
63707;PMS5003;67643;-34.198;22.084;2023-04-03T20:21:29;2;2;
63707;PMS5003;67643;-34.198;22.084;2023-04-03T20:23:59;2;2;
63707;PMS5003;67643;-34.198;22.084;2023-04-03T20:26:29;4;2;
63707;PMS5003;67643;-34.198;22.084;2023-04-03T20:28:59;3;3;
63707;PMS5003;67643;-34.198;22.084;2023-04-03T20:31:28;5;2;
63707;PMS5003;67643;-34.198;22.084;2023-04-03T20:33:57;2;2;
63707;PMS5003;67643;-34.198;22.084;2023-04-03T20:36:26;2;1;
63707;PMS5003;67643;-34.198;22.084;2023-04-03T20:38:54;2;2;
63707;PMS5003;67643;-34.198;22.084;2023-04-03T20:41:23;2;2;
63707;PMS5003;67643;-34.198;22.084;2023-04-03T20:43:51;2;2;
63707;PMS5003;67643;-34.198;22.084;2023-04-03T20:46:19;2;2;
63707;PMS5003;67643;-34.198;22.084;2023-04-03T20:48:48;0;0;
63707;PMS5003;67643;-34.198;22.084;2023-04-03T20:51:17;6;4;
63707;PMS5003;67643;-34.198;22.084;2023-04-03T20:53:46;1;1;
63707;PMS5003;67643;-34.198;22.084;2023-04-03T20:56:15;1;1;
63707;PMS5003;67643;-34.198;22.084;2023-04-03T20:58:43;4;2;
63707;PMS5003;67643;-34.198;22.084;2023-04-03T21:01:13;2;2;
63707;PMS5003;67643;-34.198;22.084;2023-04-03T21:03:43;4;2;
63707;PMS5003;67643;-34.198;22.084;2023-04-03T21:20:31;2;1;
63707;PMS5003;67643;-34.198;22.084;2023-04-03T21:23:00;1;1;
63707;PMS5003;67643;-34.198;22.084;2023-04-03T21:25:28;2;1;
63707;PMS5003;67643;-34.198;22.084;2023-04-03T21:27:57;1;1;
63707;PMS5003;67643;-34.198;22.084;2023-04-03T21:30:26;3;1;
63707;PMS5003;67643;-34.198;22.084;2023-04-03T21:32:55;1;1;
63707;PMS5003;67643;-34.198;22.084;2023-04-03T21:35:23;3;2;
63707;PMS5003;67643;-34.198;22.084;2023-04-03T21:37:51;2;2;
63707;PMS5003;67643;-34.198;22.084;2023-04-03T21:40:20;1;1;
63707;PMS5003;67643;-34.198;22.084;2023-04-03T21:42:52;2;1;
63707;PMS5003;67643;-34.198;22.084;2023-04-03T21:45:21;2;2;
63707;PMS5003;67643;-34.198;22.084;2023-04-03T21:47:49;2;2;
63707;PMS5003;67643;-34.198;22.084;2023-04-03T21:50:18;1;1;
63707;PMS5003;67643;-34.198;22.084;2023-04-03T21:52:46;2;2;